sensor_id;sensor_type;location;lat;lon;timestamp;pressure;altitude;pressure_sealevel;temperature;humidity
3132;BME280;62090;52.330;9.104;2023-07-20T00:00:41;100739.84;;;18.93;79.13
3132;BME280;62090;52.330;9.104;2023-07-20T00:03:12;100718.47;;;18.78;79.77
3132;BME280;62090;52.330;9.104;2023-07-20T00:05:46;100729.50;;;18.98;79.77
3132;BME280;62090;52.330;9.104;2023-07-20T00:08:16;100742.31;;;19.07;79.93
3132;BME280;62090;52.330;9.104;2023-07-20T00:10:47;100733.50;;;19.25;79.47
3132;BME280;62090;52.330;9.104;2023-07-20T00:13:17;100717.97;;;19.26;78.94
3132;BME280;62090;52.330;9.104;2023-07-20T00:15:48;100710.22;;;19.28;78.74
3132;BME280;62090;52.330;9.104;2023-07-20T00:18:18;100563.97;;;18.41;78.43
3132;BME280;62090;52.330;9.104;2023-07-20T00:20:50;100569.06;;;18.46;78.41
3132;BME280;62090;52.330;9.104;2023-07-20T00:23:20;100668.38;;;18.97;78.96
3132;BME280;62090;52.330;9.104;2023-07-20T00:25:51;100694.03;;;19.12;79.08
3132;BME280;62090;52.330;9.104;2023-07-20T00:28:21;100724.97;;;19.18;78.52
3132;BME280;62090;52.330;9.104;2023-07-20T00:30:51;100702.09;;;18.83;79.52
3132;BME280;62090;52.330;9.104;2023-07-20T00:33:21;100697.97;;;18.64;79.70
3132;BME280;62090;52.330;9.104;2023-07-20T00:35:54;100724.66;;;18.66;80.93
3132;BME280;62090;52.330;9.104;2023-07-20T00:38:24;100722.13;;;18.52;81.31
3132;BME280;62090;52.330;9.104;2023-07-20T00:40:54;100706.84;;;18.28;82.21
3132;BME280;62090;52.330;9.104;2023-07-20T00:43:24;100645.13;;;18.04;82.68
3132;BME280;62090;52.330;9.104;2023-07-20T00:45:55;100695.59;;;18.35;82.71
3132;BME280;62090;52.330;9.104;2023-07-20T00:48:25;100711.75;;;18.65;82.65
3132;BME280;62090;52.330;9.104;2023-07-20T00:50:59;100711.69;;;18.71;82.76
3132;BME280;62090;52.330;9.104;2023-07-20T00:53:29;100681.75;;;18.48;82.75
3132;BME280;62090;52.330;9.104;2023-07-20T00:56:00;100639.78;;;18.28;83.08
3132;BME280;62090;52.330;9.104;2023-07-20T00:58:30;100704.75;;;18.73;83.48
3132;BME280;62090;52.330;9.104;2023-07-20T01:01:01;100712.59;;;18.64;84.41
3132;BME280;62090;52.330;9.104;2023-07-20T01:03:34;100708.28;;;18.66;84.31
3132;BME280;62090;52.330;9.104;2023-07-20T01:06:14;100690.28;;;18.56;84.35
3132;BME280;62090;52.330;9.104;2023-07-20T01:08:57;100590.19;;;17.97;84.60
3132;BME280;62090;52.330;9.104;2023-07-20T01:11:37;100654.31;;;18.37;84.65
3132;BME280;62090;52.330;9.104;2023-07-20T01:14:07;100650.00;;;18.39;84.60
3132;BME280;62090;52.330;9.104;2023-07-20T01:16:38;100691.09;;;18.63;84.53
3132;BME280;62090;52.330;9.104;2023-07-20T01:19:08;100657.66;;;18.48;84.21
3132;BME280;62090;52.330;9.104;2023-07-20T01:21:53;100710.69;;;18.84;84.33
3132;BME280;62090;52.330;9.104;2023-07-20T01:27:55;100694.38;;;18.79;83.91
3132;BME280;62090;52.330;9.104;2023-07-20T01:30:52;100703.78;;;18.87;83.85
3132;BME280;62090;52.330;9.104;2023-07-20T01:33:28;100700.25;;;18.96;84.03
3132;BME280;62090;52.330;9.104;2023-07-20T01:36:01;100569.31;;;18.23;83.69
3132;BME280;62090;52.330;9.104;2023-07-20T01:38:33;100696.75;;;19.02;83.53
3132;BME280;62090;52.330;9.104;2023-07-20T01:41:03;100698.47;;;18.99;83.68
3132;BME280;62090;52.330;9.104;2023-07-20T01:43:34;100698.59;;;18.89;83.98
3132;BME280;62090;52.330;9.104;2023-07-20T01:46:04;100647.44;;;18.37;84.69
3132;BME280;62090;52.330;9.104;2023-07-20T01:48:37;100704.09;;;18.55;85.70
3132;BME280;62090;52.330;9.104;2023-07-20T01:51:07;100610.81;;;17.94;85.96
3132;BME280;62090;52.330;9.104;2023-07-20T01:53:39;100710.13;;;18.54;86.74
3132;BME280;62090;52.330;9.104;2023-07-20T01:56:09;100673.19;;;18.45;85.50
3132;BME280;62090;52.330;9.104;2023-07-20T01:58:39;100664.47;;;18.56;85.44
3132;BME280;62090;52.330;9.104;2023-07-20T02:01:09;100649.91;;;18.46;85.29
3132;BME280;62090;52.330;9.104;2023-07-20T02:03:42;100668.72;;;18.64;85.40
3132;BME280;62090;52.330;9.104;2023-07-20T02:06:12;100679.97;;;18.56;86.50
3132;BME280;62090;52.330;9.104;2023-07-20T02:08:42;100698.88;;;18.60;87.47
3132;BME280;62090;52.330;9.104;2023-07-20T02:11:12;100685.19;;;18.46;87.82
3132;BME280;62090;52.330;9.104;2023-07-20T02:13:42;100689.44;;;18.53;87.74
3132;BME280;62090;52.330;9.104;2023-07-20T02:16:12;100541.47;;;17.56;87.71
3132;BME280;62090;52.330;9.104;2023-07-20T02:18:44;100622.69;;;18.15;87.37
3132;BME280;62090;52.330;9.104;2023-07-20T02:21:14;100689.50;;;18.48;88.12
3132;BME280;62090;52.330;9.104;2023-07-20T02:23:44;100691.34;;;18.34;88.76
3132;BME280;62090;52.330;9.104;2023-07-20T02:26:14;100575.84;;;17.58;89.86
3132;BME280;62090;52.330;9.104;2023-07-20T02:28:44;100692.19;;;18.32;89.66
3132;BME280;62090;52.330;9.104;2023-07-20T02:31:14;100606.69;;;17.73;90.09
3132;BME280;62090;52.330;9.104;2023-07-20T02:33:47;100508.25;;;17.20;90.59
3132;BME280;62090;52.330;9.104;2023-07-20T02:36:17;100698.25;;;18.26;90.83
3132;BME280;62090;52.330;9.104;2023-07-20T02:38:47;100697.41;;;18.29;90.93
3132;BME280;62090;52.330;9.104;2023-07-20T02:41:17;100680.25;;;18.22;90.98
3132;BME280;62090;52.330;9.104;2023-07-20T02:43:47;100687.81;;;18.41;90.08
3132;BME280;62090;52.330;9.104;2023-07-20T02:46:17;100664.69;;;18.31;89.13
3132;BME280;62090;52.330;9.104;2023-07-20T02:48:50;100658.56;;;18.42;88.99
3132;BME280;62090;52.330;9.104;2023-07-20T02:51:20;100699.69;;;18.64;88.99
3132;BME280;62090;52.330;9.104;2023-07-20T02:53:50;100689.31;;;18.70;88.39
3132;BME280;62090;52.330;9.104;2023-07-20T02:56:20;100690.13;;;18.76;87.33
3132;BME280;62090;52.330;9.104;2023-07-20T02:58:50;100686.66;;;18.77;87.52
3132;BME280;62090;52.330;9.104;2023-07-20T03:01:20;100662.81;;;18.54;87.26
3132;BME280;62090;52.330;9.104;2023-07-20T03:03:53;100665.28;;;18.62;87.00
3132;BME280;62090;52.330;9.104;2023-07-20T03:06:23;100703.81;;;18.83;86.98
3132;BME280;62090;52.330;9.104;2023-07-20T03:08:53;100547.38;;;17.80;87.04
3132;BME280;62090;52.330;9.104;2023-07-20T03:11:23;100516.63;;;17.52;87.19
3132;BME280;62090;52.330;9.104;2023-07-20T03:13:53;100706.53;;;18.71;87.47
3132;BME280;62090;52.330;9.104;2023-07-20T03:16:24;100697.97;;;18.63;87.87
3132;BME280;62090;52.330;9.104;2023-07-20T03:18:57;100617.63;;;18.04;87.89
3132;BME280;62090;52.330;9.104;2023-07-20T03:21:28;100705.78;;;18.56;88.96
3132;BME280;62090;52.330;9.104;2023-07-20T03:23:59;100737.56;;;18.65;90.63
3132;BME280;62090;52.330;9.104;2023-07-20T03:26:30;100736.75;;;18.56;92.63
3132;BME280;62090;52.330;9.104;2023-07-20T03:28:59;100742.00;;;18.44;92.55
3132;BME280;62090;52.330;9.104;2023-07-20T03:31:29;100740.34;;;18.33;93.76
3132;BME280;62090;52.330;9.104;2023-07-20T03:34:02;100726.78;;;18.08;95.54
3132;BME280;62090;52.330;9.104;2023-07-20T03:36:32;100731.06;;;18.12;94.47
3132;BME280;62090;52.330;9.104;2023-07-20T03:39:02;100580.38;;;17.14;95.02
3132;BME280;62090;52.330;9.104;2023-07-20T03:41:32;100729.38;;;18.08;94.24
3132;BME280;62090;52.330;9.104;2023-07-20T03:44:04;100390.47;;;16.04;95.21
3132;BME280;62090;52.330;9.104;2023-07-20T03:46:37;100421.19;;;16.29;95.84
3132;BME280;62090;52.330;9.104;2023-07-20T03:49:31;100689.13;;;17.77;95.70
3132;BME280;62090;52.330;9.104;2023-07-20T03:52:04;100671.22;;;17.46;95.49
3132;BME280;62090;52.330;9.104;2023-07-20T03:55:04;100583.00;;;17.03;95.15
3132;BME280;62090;52.330;9.104;2023-07-20T03:58:43;100611.34;;;17.08;95.43
3132;BME280;62090;52.330;9.104;2023-07-20T04:01:15;100750.78;;;18.14;95.75
3132;BME280;62090;52.330;9.104;2023-07-20T04:03:55;100743.09;;;18.10;94.35
3132;BME280;62090;52.330;9.104;2023-07-20T04:06:31;100662.69;;;17.44;94.66
3132;BME280;62090;52.330;9.104;2023-07-20T04:09:03;100674.63;;;17.57;95.09
3132;BME280;62090;52.330;9.104;2023-07-20T04:11:39;100506.03;;;16.41;94.46
3132;BME280;62090;52.330;9.104;2023-07-20T04:14:24;100514.56;;;16.54;94.81
3132;BME280;62090;52.330;9.104;2023-07-20T04:17:08;100703.81;;;17.56;94.95
3132;BME280;62090;52.330;9.104;2023-07-20T04:19:40;100707.25;;;17.64;94.51
3132;BME280;62090;52.330;9.104;2023-07-20T04:22:13;100675.56;;;17.35;94.26
3132;BME280;62090;52.330;9.104;2023-07-20T04:25:10;100396.56;;;15.55;94.01
3132;BME280;62090;52.330;9.104;2023-07-20T04:28:22;100576.22;;;16.90;95.10
3132;BME280;62090;52.330;9.104;2023-07-20T04:31:32;100524.84;;;16.52;95.76
3132;BME280;62090;52.330;9.104;2023-07-20T04:37:46;100602.78;;;16.94;94.33
3132;BME280;62090;52.330;9.104;2023-07-20T04:40:32;100619.13;;;16.89;95.28
3132;BME280;62090;52.330;9.104;2023-07-20T04:44:00;100694.50;;;17.26;95.53
3132;BME280;62090;52.330;9.104;2023-07-20T04:46:30;100712.47;;;17.45;95.94
3132;BME280;62090;52.330;9.104;2023-07-20T04:49:02;100707.31;;;17.42;96.21
3132;BME280;62090;52.330;9.104;2023-07-20T04:51:37;100549.75;;;16.48;97.65
3132;BME280;62090;52.330;9.104;2023-07-20T04:54:10;100768.06;;;18.00;96.22
3132;BME280;62090;52.330;9.104;2023-07-20T04:56:42;100474.34;;;16.33;95.61
3132;BME280;62090;52.330;9.104;2023-07-20T04:59:14;100770.56;;;18.14;97.34
3132;BME280;62090;52.330;9.104;2023-07-20T05:01:44;100778.28;;;18.20;96.92
3132;BME280;62090;52.330;9.104;2023-07-20T05:04:15;100778.34;;;18.12;97.34
3132;BME280;62090;52.330;9.104;2023-07-20T05:06:51;100622.41;;;17.26;96.96
3132;BME280;62090;52.330;9.104;2023-07-20T05:23:20;100620.66;;;17.33;97.28
3132;BME280;62090;52.330;9.104;2023-07-20T05:26:01;100773.81;;;18.43;97.24
3132;BME280;62090;52.330;9.104;2023-07-20T05:28:30;100777.19;;;19.49;90.14
3132;BME280;62090;52.330;9.104;2023-07-20T05:31:02;100781.13;;;18.99;91.95
3132;BME280;62090;52.330;9.104;2023-07-20T05:33:33;100781.31;;;18.78;93.59
3132;BME280;62090;52.330;9.104;2023-07-20T05:36:04;100712.84;;;18.33;94.37
3132;BME280;62090;52.330;9.104;2023-07-20T05:38:36;100801.16;;;18.75;93.54
3132;BME280;62090;52.330;9.104;2023-07-20T05:41:06;100782.31;;;18.64;93.86
3132;BME280;62090;52.330;9.104;2023-07-20T05:43:37;100789.19;;;18.62;94.21
3132;BME280;62090;52.330;9.104;2023-07-20T05:46:09;100789.19;;;18.62;94.19
3132;BME280;62090;52.330;9.104;2023-07-20T05:48:39;100568.28;;;17.29;93.78
3132;BME280;62090;52.330;9.104;2023-07-20T05:51:09;100766.88;;;18.51;93.99
3132;BME280;62090;52.330;9.104;2023-07-20T05:53:42;100783.88;;;18.78;92.15
3132;BME280;62090;52.330;9.104;2023-07-20T05:56:13;100790.63;;;18.97;92.12
3132;BME280;62090;52.330;9.104;2023-07-20T05:58:43;100793.00;;;19.19;92.12
3132;BME280;62090;52.330;9.104;2023-07-20T06:01:13;100797.22;;;19.27;91.61
3132;BME280;62090;52.330;9.104;2023-07-20T06:03:45;100736.69;;;18.63;90.52
3132;BME280;62090;52.330;9.104;2023-07-20T06:06:15;100806.91;;;19.06;90.00
3132;BME280;62090;52.330;9.104;2023-07-20T06:08:48;100805.31;;;18.88;91.44
3132;BME280;62090;52.330;9.104;2023-07-20T06:11:18;100806.22;;;18.82;92.22
3132;BME280;62090;52.330;9.104;2023-07-20T06:13:48;100748.09;;;18.31;91.84
3132;BME280;62090;52.330;9.104;2023-07-20T06:16:18;100779.75;;;18.61;91.92
3132;BME280;62090;52.330;9.104;2023-07-20T06:18:48;100821.63;;;18.93;93.07
3132;BME280;62090;52.330;9.104;2023-07-20T06:21:18;100823.34;;;18.97;92.24
3132;BME280;62090;52.330;9.104;2023-07-20T06:23:51;100829.28;;;19.08;91.15
3132;BME280;62090;52.330;9.104;2023-07-20T06:26:21;100831.88;;;19.05;91.51
3132;BME280;62090;52.330;9.104;2023-07-20T06:28:51;100807.06;;;18.87;90.92
3132;BME280;62090;52.330;9.104;2023-07-20T06:31:21;100831.91;;;18.99;90.32
3132;BME280;62090;52.330;9.104;2023-07-20T06:33:51;100824.06;;;19.11;90.25
3132;BME280;62090;52.330;9.104;2023-07-20T06:36:21;100835.09;;;19.27;87.76
3132;BME280;62090;52.330;9.104;2023-07-20T06:38:55;100829.88;;;19.34;86.59
3132;BME280;62090;52.330;9.104;2023-07-20T06:41:28;100831.47;;;19.49;85.75
3132;BME280;62090;52.330;9.104;2023-07-20T06:44:02;100824.47;;;19.59;85.08
3132;BME280;62090;52.330;9.104;2023-07-20T06:46:32;100837.16;;;19.81;83.21
3132;BME280;62090;52.330;9.104;2023-07-20T06:49:02;100828.59;;;19.75;83.59
3132;BME280;62090;52.330;9.104;2023-07-20T06:51:34;100761.72;;;19.43;85.18
3132;BME280;62090;52.330;9.104;2023-07-20T06:54:07;100775.41;;;19.56;82.45
3132;BME280;62090;52.330;9.104;2023-07-20T06:56:37;100799.00;;;19.97;80.40
3132;BME280;62090;52.330;9.104;2023-07-20T06:59:12;100832.78;;;20.51;80.24
3132;BME280;62090;52.330;9.104;2023-07-20T07:01:42;100803.22;;;20.64;79.34
3132;BME280;62090;52.330;9.104;2023-07-20T07:04:12;100788.28;;;20.81;77.05
3132;BME280;62090;52.330;9.104;2023-07-20T07:06:42;100580.38;;;19.12;78.44
3132;BME280;62090;52.330;9.104;2023-07-20T07:09:15;100821.03;;;20.25;79.32
3132;BME280;62090;52.330;9.104;2023-07-20T07:11:45;100741.03;;;19.43;79.09
3132;BME280;62090;52.330;9.104;2023-07-20T07:14:15;100823.81;;;20.13;79.73
3132;BME280;62090;52.330;9.104;2023-07-20T07:16:45;100842.44;;;20.40;78.51
3132;BME280;62090;52.330;9.104;2023-07-20T07:19:18;100744.00;;;19.85;78.20
3132;BME280;62090;52.330;9.104;2023-07-20T07:21:49;100804.41;;;20.45;78.45
3132;BME280;62090;52.330;9.104;2023-07-20T07:24:22;100845.97;;;20.89;75.92
3132;BME280;62090;52.330;9.104;2023-07-20T07:26:51;100764.44;;;20.61;75.75
3132;BME280;62090;52.330;9.104;2023-07-20T07:29:21;100725.63;;;20.58;76.82
3132;BME280;62090;52.330;9.104;2023-07-20T07:31:52;100847.63;;;20.95;74.71
3132;BME280;62090;52.330;9.104;2023-07-20T07:34:22;100851.81;;;20.48;74.62
3132;BME280;62090;52.330;9.104;2023-07-20T07:37:13;100707.94;;;18.99;75.61
3132;BME280;62090;52.330;9.104;2023-07-20T07:39:47;100810.31;;;19.90;78.53
3132;BME280;62090;52.330;9.104;2023-07-20T07:42:23;100852.91;;;20.32;74.43
3132;BME280;62090;52.330;9.104;2023-07-20T07:44:54;100823.88;;;20.09;72.58
3132;BME280;62090;52.330;9.104;2023-07-20T07:47:24;100862.09;;;20.53;73.49
3132;BME280;62090;52.330;9.104;2023-07-20T07:49:54;100863.31;;;20.86;73.90
3132;BME280;62090;52.330;9.104;2023-07-20T07:52:24;100851.84;;;21.00;71.95
3132;BME280;62090;52.330;9.104;2023-07-20T07:54:57;100861.84;;;21.25;70.46
3132;BME280;62090;52.330;9.104;2023-07-20T07:57:27;100857.25;;;21.40;68.69
3132;BME280;62090;52.330;9.104;2023-07-20T07:59:57;100859.63;;;21.51;68.61
3132;BME280;62090;52.330;9.104;2023-07-20T08:02:27;100866.31;;;21.63;68.42
3132;BME280;62090;52.330;9.104;2023-07-20T08:04:56;100864.47;;;21.69;66.09
3132;BME280;62090;52.330;9.104;2023-07-20T08:07:27;100870.59;;;21.18;64.90
3132;BME280;62090;52.330;9.104;2023-07-20T08:10:00;100876.66;;;20.60;65.79
3132;BME280;62090;52.330;9.104;2023-07-20T08:12:30;100853.94;;;20.17;66.87
3132;BME280;62090;52.330;9.104;2023-07-20T08:15:00;100871.91;;;20.28;67.65
3132;BME280;62090;52.330;9.104;2023-07-20T08:17:31;100853.69;;;20.39;64.05
3132;BME280;62090;52.330;9.104;2023-07-20T08:20:02;100873.13;;;20.67;66.10
3132;BME280;62090;52.330;9.104;2023-07-20T08:22:33;100871.97;;;20.85;65.39
3132;BME280;62090;52.330;9.104;2023-07-20T08:25:06;100871.81;;;20.94;65.57
3132;BME280;62090;52.330;9.104;2023-07-20T08:27:37;100860.22;;;21.18;63.48
3132;BME280;62090;52.330;9.104;2023-07-20T08:30:09;100875.41;;;21.39;63.46
3132;BME280;62090;52.330;9.104;2023-07-20T08:32:39;100866.81;;;21.81;65.65
3132;BME280;62090;52.330;9.104;2023-07-20T08:35:09;100876.50;;;22.16;63.95
3132;BME280;62090;52.330;9.104;2023-07-20T08:37:42;100873.69;;;22.27;62.70
3132;BME280;62090;52.330;9.104;2023-07-20T08:40:14;100870.75;;;22.02;64.91
3132;BME280;62090;52.330;9.104;2023-07-20T08:42:45;100882.50;;;21.75;63.35
3132;BME280;62090;52.330;9.104;2023-07-20T08:45:16;100866.53;;;21.01;61.34
3132;BME280;62090;52.330;9.104;2023-07-20T08:47:47;100879.19;;;20.63;61.67
3132;BME280;62090;52.330;9.104;2023-07-20T08:50:19;100884.84;;;20.89;61.54
3132;BME280;62090;52.330;9.104;2023-07-20T08:52:50;100876.25;;;21.41;62.28
3132;BME280;62090;52.330;9.104;2023-07-20T08:55:26;100875.50;;;21.79;57.99
3132;BME280;62090;52.330;9.104;2023-07-20T08:57:57;100850.47;;;21.78;57.87
3132;BME280;62090;52.330;9.104;2023-07-20T09:00:27;100871.16;;;22.24;58.92
3132;BME280;62090;52.330;9.104;2023-07-20T09:02:58;100825.84;;;21.99;56.52
3132;BME280;62090;52.330;9.104;2023-07-20T09:05:30;100809.22;;;21.64;57.73
3132;BME280;62090;52.330;9.104;2023-07-20T09:08:02;100853.09;;;21.75;58.89
3132;BME280;62090;52.330;9.104;2023-07-20T09:10:35;100873.13;;;21.68;61.08
3132;BME280;62090;52.330;9.104;2023-07-20T09:13:05;100876.66;;;21.64;58.52
3132;BME280;62090;52.330;9.104;2023-07-20T09:15:36;100866.09;;;21.73;57.86
3132;BME280;62090;52.330;9.104;2023-07-20T09:18:06;100853.84;;;21.83;56.38
3132;BME280;62090;52.330;9.104;2023-07-20T09:20:36;100873.13;;;22.13;54.88
3132;BME280;62090;52.330;9.104;2023-07-20T09:23:06;100826.81;;;21.91;56.94
3132;BME280;62090;52.330;9.104;2023-07-20T09:25:40;100849.38;;;22.31;54.53
3132;BME280;62090;52.330;9.104;2023-07-20T09:28:10;100869.38;;;22.64;55.91
3132;BME280;62090;52.330;9.104;2023-07-20T09:30:40;100847.06;;;22.57;55.50
3132;BME280;62090;52.330;9.104;2023-07-20T09:33:19;100840.44;;;22.43;56.34
3132;BME280;62090;52.330;9.104;2023-07-20T09:35:54;100836.81;;;22.51;56.67
3132;BME280;62090;52.330;9.104;2023-07-20T09:38:33;100840.84;;;23.00;55.61
3132;BME280;62090;52.330;9.104;2023-07-20T09:41:26;100812.91;;;23.08;55.88
3132;BME280;62090;52.330;9.104;2023-07-20T09:44:00;100859.56;;;23.79;55.35
3132;BME280;62090;52.330;9.104;2023-07-20T09:46:50;100866.84;;;23.97;54.77
3132;BME280;62090;52.330;9.104;2023-07-20T09:49:23;100840.97;;;23.62;54.26
3132;BME280;62090;52.330;9.104;2023-07-20T09:51:57;100864.94;;;23.40;52.99
3132;BME280;62090;52.330;9.104;2023-07-20T09:54:29;100865.59;;;23.14;53.29
3132;BME280;62090;52.330;9.104;2023-07-20T09:57:03;100838.13;;;23.04;54.50
3132;BME280;62090;52.330;9.104;2023-07-20T09:59:33;100862.38;;;23.37;53.50
3132;BME280;62090;52.330;9.104;2023-07-20T10:02:10;100846.25;;;23.26;51.98
3132;BME280;62090;52.330;9.104;2023-07-20T10:04:43;100850.97;;;23.10;53.50
3132;BME280;62090;52.330;9.104;2023-07-20T10:07:14;100870.53;;;23.25;53.15
3132;BME280;62090;52.330;9.104;2023-07-20T10:09:48;100865.97;;;23.33;53.93
3132;BME280;62090;52.330;9.104;2023-07-20T10:12:23;100838.03;;;23.41;53.65
3132;BME280;62090;52.330;9.104;2023-07-20T10:15:07;100822.03;;;23.56;54.15
3132;BME280;62090;52.330;9.104;2023-07-20T10:17:44;100871.59;;;23.83;53.59
3132;BME280;62090;52.330;9.104;2023-07-20T10:20:19;100873.47;;;23.78;52.95
3132;BME280;62090;52.330;9.104;2023-07-20T10:22:53;100865.25;;;23.91;53.42
3132;BME280;62090;52.330;9.104;2023-07-20T10:25:24;100861.63;;;23.97;50.81
3132;BME280;62090;52.330;9.104;2023-07-20T10:27:57;100824.19;;;23.39;50.19
3132;BME280;62090;52.330;9.104;2023-07-20T10:30:29;100854.59;;;23.37;51.94
3132;BME280;62090;52.330;9.104;2023-07-20T10:32:59;100866.53;;;23.44;51.98
3132;BME280;62090;52.330;9.104;2023-07-20T10:35:30;100856.09;;;23.47;51.85
3132;BME280;62090;52.330;9.104;2023-07-20T10:38:01;100860.75;;;23.33;50.48
3132;BME280;62090;52.330;9.104;2023-07-20T10:40:32;100862.38;;;23.37;52.66
3132;BME280;62090;52.330;9.104;2023-07-20T10:43:06;100789.69;;;23.00;52.37
3132;BME280;62090;52.330;9.104;2023-07-20T10:45:39;100848.34;;;23.46;52.44
3132;BME280;62090;52.330;9.104;2023-07-20T10:48:14;100792.75;;;23.16;53.48
3132;BME280;62090;52.330;9.104;2023-07-20T10:51:09;100858.72;;;23.47;51.73
3132;BME280;62090;52.330;9.104;2023-07-20T10:53:40;100852.72;;;23.42;51.70
3132;BME280;62090;52.330;9.104;2023-07-20T10:56:14;100824.50;;;23.27;51.39
3132;BME280;62090;52.330;9.104;2023-07-20T10:58:47;100863.81;;;23.50;52.69
3132;BME280;62090;52.330;9.104;2023-07-20T11:01:17;100862.81;;;23.54;52.28
3132;BME280;62090;52.330;9.104;2023-07-20T11:03:50;100844.28;;;23.67;50.30
3132;BME280;62090;52.330;9.104;2023-07-20T11:06:32;100767.94;;;23.37;51.00
3132;BME280;62090;52.330;9.104;2023-07-20T11:09:07;100859.75;;;24.02;50.88
3132;BME280;62090;52.330;9.104;2023-07-20T11:11:39;100848.09;;;24.15;49.98
3132;BME280;62090;52.330;9.104;2023-07-20T11:14:21;100838.44;;;23.89;50.03
3132;BME280;62090;52.330;9.104;2023-07-20T11:16:52;100851.84;;;23.76;49.69
3132;BME280;62090;52.330;9.104;2023-07-20T11:19:24;100858.28;;;23.63;50.92
3132;BME280;62090;52.330;9.104;2023-07-20T11:21:58;100835.28;;;23.47;51.05
3132;BME280;62090;52.330;9.104;2023-07-20T11:24:31;100841.13;;;23.55;51.51
3132;BME280;62090;52.330;9.104;2023-07-20T11:27:01;100836.25;;;23.74;51.70
3132;BME280;62090;52.330;9.104;2023-07-20T11:29:34;100853.31;;;24.15;51.06
3132;BME280;62090;52.330;9.104;2023-07-20T11:32:05;100844.31;;;24.27;50.68
3132;BME280;62090;52.330;9.104;2023-07-20T11:34:35;100822.53;;;24.28;49.49
3132;BME280;62090;52.330;9.104;2023-07-20T11:37:05;100843.94;;;24.37;50.91
3132;BME280;62090;52.330;9.104;2023-07-20T11:39:38;100823.31;;;24.31;50.09
3132;BME280;62090;52.330;9.104;2023-07-20T11:42:09;100630.16;;;23.04;49.62
3132;BME280;62090;52.330;9.104;2023-07-20T11:44:42;100812.28;;;23.94;51.00
3132;BME280;62090;52.330;9.104;2023-07-20T11:47:12;100851.75;;;24.08;50.22
3132;BME280;62090;52.330;9.104;2023-07-20T11:49:43;100846.31;;;24.17;51.17
3132;BME280;62090;52.330;9.104;2023-07-20T11:52:16;100823.69;;;24.19;49.96
3132;BME280;62090;52.330;9.104;2023-07-20T11:54:47;100839.03;;;24.28;50.21
3132;BME280;62090;52.330;9.104;2023-07-20T11:57:17;100830.13;;;24.06;51.10
3132;BME280;62090;52.330;9.104;2023-07-20T11:59:57;100815.66;;;23.96;50.87
3132;BME280;62090;52.330;9.104;2023-07-20T12:02:32;100835.06;;;23.86;51.82
3132;BME280;62090;52.330;9.104;2023-07-20T12:05:02;100812.78;;;23.45;49.10
3132;BME280;62090;52.330;9.104;2023-07-20T12:07:36;100841.25;;;23.51;50.10
3132;BME280;62090;52.330;9.104;2023-07-20T12:10:10;100814.75;;;23.37;49.91
3132;BME280;62090;52.330;9.104;2023-07-20T12:12:41;100826.78;;;23.72;50.76
3132;BME280;62090;52.330;9.104;2023-07-20T12:15:20;100849.19;;;24.07;50.69
3132;BME280;62090;52.330;9.104;2023-07-20T12:17:52;100828.66;;;23.97;48.92
3132;BME280;62090;52.330;9.104;2023-07-20T12:20:27;100841.44;;;24.05;49.08
3132;BME280;62090;52.330;9.104;2023-07-20T12:23:00;100835.63;;;24.26;51.08
3132;BME280;62090;52.330;9.104;2023-07-20T12:25:33;100836.66;;;24.75;50.00
3132;BME280;62090;52.330;9.104;2023-07-20T12:28:04;100819.25;;;25.03;49.90
3132;BME280;62090;52.330;9.104;2023-07-20T12:30:37;100832.47;;;25.23;50.48
3132;BME280;62090;52.330;9.104;2023-07-20T12:33:07;100819.94;;;25.08;48.84
3132;BME280;62090;52.330;9.104;2023-07-20T12:35:38;100814.34;;;24.94;49.01
3132;BME280;62090;52.330;9.104;2023-07-20T12:38:11;100819.25;;;24.77;49.38
3132;BME280;62090;52.330;9.104;2023-07-20T12:40:41;100833.16;;;24.50;48.17
3132;BME280;62090;52.330;9.104;2023-07-20T12:43:11;100834.81;;;24.24;48.24
3132;BME280;62090;52.330;9.104;2023-07-20T12:45:44;100835.25;;;24.09;49.73
3132;BME280;62090;52.330;9.104;2023-07-20T12:48:14;100837.63;;;23.87;52.66
3132;BME280;62090;52.330;9.104;2023-07-20T12:50:44;100801.84;;;23.32;52.80
3132;BME280;62090;52.330;9.104;2023-07-20T12:53:14;100831.38;;;23.31;53.97
3132;BME280;62090;52.330;9.104;2023-07-20T12:55:44;100844.41;;;23.30;51.54
3132;BME280;62090;52.330;9.104;2023-07-20T12:58:14;100824.34;;;23.01;51.42
3132;BME280;62090;52.330;9.104;2023-07-20T13:00:47;100835.63;;;23.34;51.90
3132;BME280;62090;52.330;9.104;2023-07-20T13:03:17;100827.09;;;23.61;52.16
3132;BME280;62090;52.330;9.104;2023-07-20T13:05:50;100787.66;;;23.44;52.05
3132;BME280;62090;52.330;9.104;2023-07-20T13:08:23;100832.31;;;23.90;52.56
3132;BME280;62090;52.330;9.104;2023-07-20T13:10:54;100822.25;;;24.08;51.37
3132;BME280;62090;52.330;9.104;2023-07-20T13:13:24;100820.63;;;24.05;49.96
3132;BME280;62090;52.330;9.104;2023-07-20T13:15:57;100812.53;;;24.14;51.07
3132;BME280;62090;52.330;9.104;2023-07-20T13:18:27;100823.63;;;24.49;50.90
3132;BME280;62090;52.330;9.104;2023-07-20T13:20:57;100817.59;;;24.74;50.18
3132;BME280;62090;52.330;9.104;2023-07-20T13:23:29;100816.44;;;24.83;47.62
3132;BME280;62090;52.330;9.104;2023-07-20T13:25:59;100818.06;;;24.86;46.72
3132;BME280;62090;52.330;9.104;2023-07-20T13:28:29;100811.56;;;24.72;47.09
3132;BME280;62090;52.330;9.104;2023-07-20T13:31:01;100812.81;;;24.87;47.91
3132;BME280;62090;52.330;9.104;2023-07-20T13:33:31;100819.22;;;25.05;47.25
3132;BME280;62090;52.330;9.104;2023-07-20T13:36:05;100811.31;;;24.80;45.52
3132;BME280;62090;52.330;9.104;2023-07-20T13:38:35;100807.59;;;24.87;45.68
3132;BME280;62090;52.330;9.104;2023-07-20T13:41:05;100811.59;;;24.99;45.63
3132;BME280;62090;52.330;9.104;2023-07-20T13:43:35;100811.38;;;25.05;46.41
3132;BME280;62090;52.330;9.104;2023-07-20T13:46:08;100814.88;;;25.29;46.94
3132;BME280;62090;52.330;9.104;2023-07-20T13:48:43;100802.31;;;25.40;44.35
3132;BME280;62090;52.330;9.104;2023-07-20T13:51:13;100806.06;;;25.57;44.33